الصفحة الرئيسية
METAR-TAF:

METAR-TAF

مطار :

كراتشي, باكستان

مطار جناح الدولي

دائرة عرض: 24-54N, خط طول: 067-08E, ارتفاع: 21 متر

مراقبة الطقس الحالي

تاريخ ووقت الإصدار 24 دقيقة قبل الساعة 06:55UTC
ريح 3 عقدة من الشرق
درجة الحرارة 25°درجة مئوية
الرطوبة 15%
ضغط 1019 hPa
الرؤية: 6000 متر

METAR: OPKC 190655Z 09003KT 6000 NSC 25/M03 Q1019 NOSIG

زمن: 12:19 (07:19 UTC)

توقعات

تاريخ ووقت الإصدار 3ساعات و 19 دقيقة قبل الساعة 04:00UTC
التوقعات صالحة من19 الساعة 06 UTC إلى 20 الساعة 12 UTC
ريح 10 عقدة من الشمال الشرقي تتزايد حتى 20 عقدة
الرؤية: 6000 متر
من 19 الساعة 1800 UTC
ريح 8 عقدة من الشمال/الشمال الشرقي
الرؤية: 4000 متر
العجاج
مؤقت
من 20 الساعة 00 UTC إلى 20 الساعة 04 UTC
ريح 3 عقدةمن اتجاهات متغيرة
الرؤية: 3000 متر
دخان
من 20 الساعة 0600 UTC
ريح 10 عقدة من الشرق/الشمال الشرقي تتزايد حتى 20 عقدة
الرؤية: 6000 متر

TAF: OPKC 190400Z 1906/2012 05010G20KT 6000 NSC FM191800 03008KT 4000 HZ NSC TEMPO 2000/2004 VRB03KT 3000 FU NSC FM200600 06010G20KT 6000 NSC

أرصاد الطقس والتوقعات من أكثر من 4000 مطار (تقارير الطقس للمطار METAR والتنبؤ بالطقس بالمطارTAF).

المحطات المتاحة هي النقط الصفراء والحمراء على الخريطة.

حرك المؤشر فوق النقطة لمعرفة اسم المحطة.

ثم انقر لمعرفة أرصاد وتوقعات الطقس.

لتغيير الخارطة: اضغط على الأزرار الخضراء مع رمز الصليب الأسود للتكبير. على الزر الأخضر مع شرطة للتصغير، أو على الأسهم الخضراء للخرائط المجاورة.


METAR-TAF: